Time;durP1;ratioP1;P1;durP2;ratioP2;P2;SDS_P1;SDS_P2;PMS_P1;PMS_P2;Temp;Humidity;BMP_temperature;BMP_pressure;BME280_temperature;BME280_humidity;BME280_pressure;Samples;Min_cycle;Max_cycle;Signal;HPM_P1;HPM_P2
2021/06/14 00:01:52;;;;;;;0.45;0.45;;;17.50;56.10;;;;;;5033938;28;20026;-76
2021/06/14 00:04:18;;;;;;;0.73;0.50;;;17.50;56.20;;;;;;5033994;28;20017;-75
2021/06/14 00:06:44;;;;;;;0.40;0.40;;;17.40;56.20;;;;;;5033525;28;20037;-76
2021/06/14 00:09:10;;;;;;;0.68;0.50;;;17.40;56.20;;;;;;5034085;28;20025;-75
2021/06/14 00:11:36;;;;;;;0.60;0.50;;;17.40;56.30;;;;;;5033360;28;20028;-76
2021/06/14 00:14:02;;;;;;;0.68;0.50;;;17.40;56.40;;;;;;5033855;28;20030;-76
2021/06/14 00:16:28;;;;;;;0.60;0.60;;;17.30;56.40;;;;;;5033648;28;20025;-76
2021/06/14 00:18:53;;;;;;;1.08;0.70;;;17.30;56.50;;;;;;5033755;28;20108;-75
2021/06/14 00:21:20;;;;;;;0.60;0.60;;;17.30;56.60;;;;;;5033304;28;20147;-76
2021/06/14 00:23:45;;;;;;;0.57;0.57;;;17.20;56.70;;;;;;5033517;28;20474;-75
2021/06/14 00:26:13;;;;;;;0.75;0.70;;;17.20;56.80;;;;;;5015883;28;20031;-75
2021/06/14 00:28:40;;;;;;;1.23;0.90;;;17.10;56.90;;;;;;5033450;28;20029;-75
2021/06/14 00:31:08;;;;;;;0.73;0.73;;;17.10;56.90;;;;;;5033502;28;20024;-76
2021/06/14 00:33:34;;;;;;;0.65;0.65;;;17.10;57.00;;;;;;5033636;28;20037;-75
2021/06/14 00:35:59;;;;;;;0.90;0.57;;;17.10;57.10;;;;;;5015220;28;20029;-76
2021/06/14 00:38:25;;;;;;;0.47;0.47;;;17.10;57.20;;;;;;5033479;28;20026;-77
2021/06/14 00:40:51;;;;;;;0.60;0.52;;;17.00;57.20;;;;;;5015901;28;20474;-76
2021/06/14 00:43:17;;;;;;;0.90;0.77;;;17.00;57.40;;;;;;5015747;28;20486;-76
2021/06/14 00:45:45;;;;;;;0.47;0.38;;;17.00;57.40;;;;;;5033308;28;20025;-77
2021/06/14 00:48:14;;;;;;;0.70;0.70;;;17.00;57.50;;;;;;5033276;28;20026;-75
2021/06/14 00:50:47;;;;;;;1.00;0.80;;;16.90;57.50;;;;;;5032903;28;20025;-75
2021/06/14 00:53:20;;;;;;;0.50;0.50;;;16.90;57.50;;;;;;5033217;28;20033;-78
2021/06/14 00:55:46;;;;;;;0.28;0.28;;;16.90;57.50;;;;;;5033148;28;20037;-74
2021/06/14 00:58:13;;;;;;;0.60;0.60;;;16.90;57.60;;;;;;5033143;28;20029;-76
2021/06/14 01:00:39;;;;;;;0.60;0.60;;;16.90;57.70;;;;;;5033407;28;20056;-74
2021/06/14 01:03:05;;;;;;;0.75;0.75;;;16.80;57.70;;;;;;5033154;28;20064;-75
2021/06/14 01:05:37;;;;;;;0.32;0.32;;;16.80;57.80;;;;;;5015002;28;20014;-76
2021/06/14 01:08:03;;;;;;;0.63;0.60;;;16.80;57.80;;;;;;5033150;28;20018;-75
2021/06/14 01:10:29;;;;;;;0.93;0.80;;;16.70;57.90;;;;;;5032966;28;20033;-76
2021/06/14 01:13:32;;;;;;;0.47;0.47;;;16.70;58.00;;;;;;5033181;28;20045;-74
2021/06/14 01:16:19;;;;;;;1.13;0.80;;;16.70;58.00;;;;;;5032971;28;20051;-75
2021/06/14 01:19:13;;;;;;;0.55;0.55;;;16.60;58.20;;;;;;5032562;28;20024;-75
2021/06/14 01:22:12;;;;;;;1.10;0.88;;;16.60;58.30;;;;;;5033006;28;20355;-75
2021/06/14 01:25:06;;;;;;;0.57;0.47;;;16.50;58.30;;;;;;5036393;28;20033;-75
2021/06/14 01:27:42;;;;;;;0.82;0.68;;;16.50;58.30;;;;;;5037133;28;20053;-75
2021/06/14 01:30:10;;;;;;;0.55;0.55;;;16.50;58.40;;;;;;5036796;28;20018;-75
2021/06/14 01:32:38;;;;;;;0.77;0.55;;;16.50;58.50;;;;;;5036554;28;20041;-75
2021/06/14 01:35:06;;;;;;;0.60;0.60;;;16.50;58.50;;;;;;5018606;28;20021;-75
2021/06/14 01:37:34;;;;;;;0.90;0.80;;;16.50;58.60;;;;;;5036475;28;20029;-77
2021/06/14 01:40:01;;;;;;;0.85;0.60;;;16.40;58.60;;;;;;5036904;28;20474;-77
2021/06/14 01:42:27;;;;;;;0.65;0.65;;;16.40;58.80;;;;;;5036672;28;20109;-75
2021/06/14 01:44:52;;;;;;;1.23;0.90;;;16.30;58.80;;;;;;5036596;28;20053;-75
2021/06/14 01:47:21;;;;;;;0.35;0.35;;;16.30;58.90;;;;;;5036508;28;20033;-75
2021/06/14 01:49:47;;;;;;;0.85;0.80;;;16.30;59.00;;;;;;5036500;28;20025;-76
2021/06/14 01:52:14;;;;;;;0.73;0.70;;;16.30;59.00;;;;;;5036350;28;20034;-76
2021/06/14 01:54:40;;;;;;;0.98;0.55;;;16.30;59.10;;;;;;5036640;28;20032;-75
2021/06/14 01:57:07;;;;;;;0.70;0.70;;;16.30;59.10;;;;;;5036525;28;20013;-75
2021/06/14 01:59:36;;;;;;;0.68;0.68;;;16.30;59.10;;;;;;5036338;28;20036;-76
2021/06/14 02:02:05;;;;;;;0.50;0.50;;;16.20;59.20;;;;;;5018025;28;20021;-76
2021/06/14 02:04:32;;;;;;;0.70;0.70;;;16.20;59.20;;;;;;5036373;28;20022;-75
2021/06/14 02:06:58;;;;;;;0.70;0.70;;;16.20;59.20;;;;;;5036255;28;20021;-76
2021/06/14 02:09:24;;;;;;;1.20;0.90;;;16.20;59.30;;;;;;5036370;28;20541;-75
2021/06/14 02:11:56;;;;;;;0.85;0.70;;;16.20;59.40;;;;;;5035881;28;20029;-76
2021/06/14 02:14:28;;;;;;;0.70;0.70;;;16.10;59.40;;;;;;5036086;28;20029;-76
2021/06/14 02:16:55;;;;;;;0.38;0.38;;;16.20;59.50;;;;;;5035623;28;20021;-75
2021/06/14 02:19:21;;;;;;;0.68;0.63;;;16.10;59.50;;;;;;5036041;28;20057;-76
2021/06/14 02:21:47;;;;;;;0.65;0.65;;;16.10;59.50;;;;;;5035977;28;20492;-75
2021/06/14 02:24:14;;;;;;;0.85;0.77;;;16.10;59.60;;;;;;5035997;28;20099;-75
2021/06/14 02:26:41;;;;;;;0.40;0.40;;;16.10;59.60;;;;;;5035932;28;20482;-75
2021/06/14 02:29:07;;;;;;;0.50;0.50;;;16.10;59.60;;;;;;5035895;28;20031;-75
2021/06/14 02:31:34;;;;;;;0.65;0.63;;;16.10;59.70;;;;;;5035379;28;20037;-76
2021/06/14 02:34:04;;;;;;;1.02;0.85;;;16.10;59.70;;;;;;5035521;28;20041;-77
2021/06/14 02:36:30;;;;;;;0.65;0.57;;;16.10;59.70;;;;;;5035733;28;20026;-75
2021/06/14 02:38:59;;;;;;;0.70;0.68;;;16.10;59.80;;;;;;5035817;28;20026;-75
2021/06/14 02:41:26;;;;;;;0.40;0.40;;;16.10;59.80;;;;;;5035680;28;20025;-76
2021/06/14 02:43:52;;;;;;;0.60;0.60;;;16.10;59.90;;;;;;5035546;28;20025;-74
2021/06/14 02:46:18;;;;;;;0.70;0.70;;;16.10;59.90;;;;;;5035121;28;20013;-76
2021/06/14 02:48:47;;;;;;;1.00;0.75;;;16.10;59.90;;;;;;5017672;28;20504;-75
2021/06/14 02:51:13;;;;;;;1.07;0.97;;;16.10;59.90;;;;;;5035448;28;20034;-76
2021/06/14 02:53:40;;;;;;;0.95;0.80;;;16.10;60.00;;;;;;5035497;28;20307;-75
2021/06/14 02:56:17;;;;;;;0.68;0.65;;;16.00;60.00;;;;;;5035184;28;20045;-76
2021/06/14 02:58:46;;;;;;;0.98;0.93;;;16.00;60.10;;;;;;5017540;28;20479;-77
2021/06/14 03:01:12;;;;;;;0.95;0.85;;;16.00;60.30;;;;;;5034816;28;20156;-76
2021/06/14 03:03:40;;;;;;;0.75;0.75;;;15.90;60.30;;;;;;5035301;28;20013;-75
2021/06/14 03:06:10;;;;;;;1.55;1.05;;;15.90;60.40;;;;;;5034964;28;20497;-74
2021/06/14 03:08:37;;;;;;;1.30;1.10;;;15.90;60.50;;;;;;5035166;28;20017;-74
2021/06/14 03:11:03;;;;;;;0.73;0.70;;;15.90;60.50;;;;;;5035107;28;20028;-76
2021/06/14 03:13:29;;;;;;;1.10;1.02;;;15.90;60.60;;;;;;5017121;28;20029;-74
2021/06/14 03:15:55;;;;;;;2.17;1.00;;;15.90;60.70;;;;;;5016738;28;20036;-75
2021/06/14 03:18:24;;;;;;;1.08;0.88;;;15.90;60.80;;;;;;5034804;28;20544;-76
2021/06/14 03:20:53;;;;;;;0.60;0.60;;;15.90;60.80;;;;;;5017139;28;20382;-76
2021/06/14 03:23:19;;;;;;;0.82;0.82;;;15.90;60.80;;;;;;5017126;28;20025;-76
2021/06/14 03:25:44;;;;;;;0.68;0.68;;;15.90;60.80;;;;;;5034815;28;20429;-76
2021/06/14 03:28:12;;;;;;;1.45;0.90;;;15.90;60.90;;;;;;5034716;28;20028;-74
2021/06/14 03:30:40;;;;;;;1.10;0.80;;;15.90;61.00;;;;;;5016390;28;20009;-76
2021/06/14 03:33:08;;;;;;;1.05;0.93;;;15.90;61.10;;;;;;5034154;28;20096;-75
2021/06/14 03:35:35;;;;;;;0.73;0.73;;;15.80;61.10;;;;;;5034559;28;20101;-75
2021/06/14 03:38:01;;;;;;;0.75;0.60;;;15.80;61.10;;;;;;5034612;28;20033;-75
2021/06/14 03:40:27;;;;;;;0.70;0.70;;;15.80;61.20;;;;;;5034529;28;20074;-76
2021/06/14 03:42:59;;;;;;;0.82;0.70;;;15.80;61.20;;;;;;5034507;28;20104;-75
2021/06/14 03:45:26;;;;;;;0.80;0.80;;;15.90;61.30;;;;;;5033426;28;20029;-76
2021/06/14 03:47:52;;;;;;;1.00;0.85;;;15.80;61.30;;;;;;5033921;28;20029;-76
2021/06/14 03:50:18;;;;;;;0.65;0.65;;;15.80;61.40;;;;;;5034321;28;20033;-75
2021/06/14 03:52:43;;;;;;;1.38;1.08;;;15.80;61.40;;;;;;5034095;28;20041;-76
2021/06/14 03:55:11;;;;;;;1.15;0.88;;;15.80;61.50;;;;;;5034263;28;20101;-76
2021/06/14 03:57:38;;;;;;;1.58;1.00;;;15.80;61.50;;;;;;5015834;28;20092;-76
2021/06/14 04:00:06;;;;;;;1.98;1.08;;;15.80;61.60;;;;;;5033699;28;20032;-75
2021/06/14 04:02:31;;;;;;;1.70;1.10;;;15.80;61.60;;;;;;5033944;28;20032;-76
2021/06/14 04:04:57;;;;;;;1.35;1.05;;;15.80;61.60;;;;;;5016321;28;20017;-74
2021/06/14 04:07:23;;;;;;;0.70;0.70;;;15.80;61.60;;;;;;5034026;28;20060;-76
2021/06/14 04:09:49;;;;;;;1.30;0.80;;;15.90;61.70;;;;;;5033960;28;20053;-76
2021/06/14 04:12:15;;;;;;;0.70;0.70;;;15.80;61.70;;;;;;5033870;28;20071;-74
2021/06/14 04:14:42;;;;;;;1.15;1.05;;;15.90;61.80;;;;;;5015639;28;20451;-75
2021/06/14 04:17:08;;;;;;;1.23;0.93;;;15.90;61.80;;;;;;5033834;28;20470;-76
2021/06/14 04:19:34;;;;;;;1.10;1.00;;;15.90;61.80;;;;;;5015970;28;20049;-75
2021/06/14 04:22:00;;;;;;;0.98;0.93;;;15.90;61.90;;;;;;5033789;28;20083;-76
2021/06/14 04:24:26;;;;;;;0.85;0.77;;;16.00;61.90;;;;;;5015892;28;20025;-75
2021/06/14 04:26:52;;;;;;;0.93;0.93;;;16.00;61.90;;;;;;5033211;28;20028;-75
2021/06/14 04:29:17;;;;;;;1.15;0.98;;;16.00;61.90;;;;;;5033650;28;20100;-75
2021/06/14 04:31:43;;;;;;;1.25;1.15;;;16.00;61.80;;;;;;5033225;28;20049;-76
2021/06/14 04:34:08;;;;;;;0.88;0.70;;;16.10;61.80;;;;;;5033356;28;20053;-74
2021/06/14 04:36:35;;;;;;;1.00;1.00;;;16.10;61.90;;;;;;5015706;28;20033;-75
2021/06/14 04:39:00;;;;;;;0.60;0.60;;;16.10;61.90;;;;;;5033531;28;20116;-75
2021/06/14 04:41:26;;;;;;;0.68;0.68;;;16.10;61.90;;;;;;5032941;28;20064;-77
2021/06/14 04:43:52;;;;;;;0.75;0.75;;;16.20;61.90;;;;;;5033388;28;20416;-75
2021/06/14 04:46:17;;;;;;;0.93;0.85;;;16.20;61.90;;;;;;5033370;28;20025;-76
2021/06/14 04:48:43;;;;;;;0.85;0.82;;;16.20;61.90;;;;;;5033326;28;20051;-75
2021/06/14 04:51:09;;;;;;;1.10;0.70;;;16.30;61.80;;;;;;5033136;28;20055;-76
2021/06/14 04:53:34;;;;;;;0.80;0.80;;;16.40;61.80;;;;;;5033237;28;20478;-75
2021/06/14 04:56:00;;;;;;;1.05;0.80;;;16.40;61.70;;;;;;5032755;28;20021;-75
2021/06/14 04:58:25;;;;;;;0.80;0.80;;;16.40;61.80;;;;;;5033380;28;20021;-75
2021/06/14 05:00:51;;;;;;;1.00;0.80;;;16.40;61.80;;;;;;5033122;28;20516;-76
2021/06/14 05:03:16;;;;;;;1.20;1.10;;;16.50;61.80;;;;;;5033100;28;20053;-76
2021/06/14 05:05:42;;;;;;;0.80;0.80;;;16.50;61.80;;;;;;5033187;28;20022;-76
2021/06/14 05:08:07;;;;;;;1.05;0.85;;;16.50;61.80;;;;;;5015557;28;20037;-75
2021/06/14 05:10:33;;;;;;;1.48;1.23;;;16.60;61.80;;;;;;5032556;28;20025;-76
2021/06/14 05:12:58;;;;;;;0.70;0.70;;;16.60;61.70;;;;;;5032933;28;20025;-76
2021/06/14 05:15:25;;;;;;;1.17;0.90;;;16.60;61.70;;;;;;5032934;28;20044;-75
2021/06/14 05:17:51;;;;;;;1.90;1.23;;;16.60;61.70;;;;;;5015271;28;20029;-76
2021/06/14 05:20:17;;;;;;;0.85;0.85;;;16.70;61.80;;;;;;5033073;28;20104;-75
2021/06/14 05:22:43;;;;;;;1.20;0.68;;;16.70;61.80;;;;;;5033001;28;20018;-75
2021/06/14 05:25:11;;;;;;;0.82;0.68;;;16.70;61.80;;;;;;5032605;28;20390;-76
2021/06/14 05:27:36;;;;;;;1.42;0.63;;;16.80;61.80;;;;;;5015082;28;20041;-76
2021/06/14 05:30:03;;;;;;;0.63;0.63;;;16.80;61.80;;;;;;5032768;28;20025;-76
2021/06/14 05:32:29;;;;;;;0.98;0.60;;;16.90;61.80;;;;;;5014856;28;20103;-76
2021/06/14 05:34:54;;;;;;;1.10;0.80;;;16.90;61.70;;;;;;5032689;28;20029;-77
2021/06/14 05:37:20;;;;;;;0.80;0.80;;;17.00;61.70;;;;;;5032859;28;20562;-75
2021/06/14 05:39:45;;;;;;;0.70;0.70;;;17.00;61.60;;;;;;5032370;28;20022;-76
2021/06/14 05:42:13;;;;;;;0.93;0.80;;;17.10;61.60;;;;;;5032769;28;20022;-77
2021/06/14 05:44:39;;;;;;;0.55;0.55;;;17.10;61.50;;;;;;5032808;28;20022;-77
2021/06/14 05:47:04;;;;;;;0.80;0.80;;;17.20;61.40;;;;;;5014942;28;20052;-73
2021/06/14 05:49:30;;;;;;;1.38;1.02;;;17.30;61.30;;;;;;5015196;28;20064;-75
2021/06/14 05:51:56;;;;;;;0.47;0.47;;;17.40;61.10;;;;;;5032507;28;20032;-76
2021/06/14 05:54:21;;;;;;;0.60;0.60;;;17.50;61.10;;;;;;5032426;28;20033;-77
2021/06/14 05:56:47;;;;;;;0.75;0.57;;;17.60;61.00;;;;;;5032750;28;20356;-79
2021/06/14 05:59:12;;;;;;;1.33;0.80;;;17.70;60.90;;;;;;5014713;28;20487;-79
2021/06/14 06:01:38;;;;;;;0.70;0.70;;;17.80;60.90;;;;;;5032640;28;20112;-78
2021/06/14 06:04:03;;;;;;;0.70;0.70;;;17.90;60.80;;;;;;5032730;28;20105;-77
2021/06/14 06:06:29;;;;;;;1.20;0.88;;;18.00;60.70;;;;;;5014901;28;20024;-76
2021/06/14 06:08:54;;;;;;;0.80;0.70;;;18.10;60.70;;;;;;5032538;28;20025;-78
2021/06/14 06:11:20;;;;;;;0.90;0.90;;;18.20;60.60;;;;;;5036204;28;20017;-77
2021/06/14 06:13:47;;;;;;;0.60;0.60;;;18.30;60.50;;;;;;5036135;28;20029;-79
2021/06/14 06:16:13;;;;;;;0.93;0.80;;;18.40;60.50;;;;;;5036270;28;20478;-79
2021/06/14 06:18:38;;;;;;;0.80;0.80;;;18.40;60.40;;;;;;5036048;28;20034;-80
2021/06/14 06:21:04;;;;;;;0.50;0.50;;;18.50;60.40;;;;;;5036098;28;20021;-79
2021/06/14 06:23:30;;;;;;;1.13;0.77;;;18.50;60.40;;;;;;5017635;28;20033;-77
2021/06/14 06:25:55;;;;;;;0.57;0.57;;;18.60;60.30;;;;;;5035827;28;20105;-79
2021/06/14 06:28:21;;;;;;;0.50;0.50;;;18.70;60.30;;;;;;5018124;28;20049;-79
2021/06/14 06:30:48;;;;;;;0.70;0.63;;;18.80;60.30;;;;;;5036074;28;20083;-80
2021/06/14 06:33:13;;;;;;;0.70;0.52;;;18.80;60.20;;;;;;5035270;28;20057;-81
2021/06/14 06:35:39;;;;;;;1.48;0.75;;;18.90;60.20;;;;;;5018092;28;20017;-79
2021/06/14 06:38:05;;;;;;;0.55;0.50;;;19.00;60.10;;;;;;5035224;28;20048;-79
2021/06/14 06:40:31;;;;;;;0.57;0.50;;;19.10;60.00;;;;;;5035757;28;20103;-80
2021/06/14 06:42:57;;;;;;;0.40;0.40;;;19.10;60.00;;;;;;5035549;28;20057;-80
2021/06/14 06:45:29;;;;;;;0.65;0.65;;;19.20;60.00;;;;;;5035634;28;20022;-79
2021/06/14 06:47:55;;;;;;;0.80;0.68;;;19.30;59.90;;;;;;5017820;28;20414;-81
2021/06/14 06:50:20;;;;;;;0.93;0.80;;;19.40;59.90;;;;;;5035599;28;20026;-79
2021/06/14 06:52:46;;;;;;;0.60;0.60;;;19.40;59.80;;;;;;5019681;28;20022;-82
2021/06/14 06:55:14;;;;;;;0.80;0.70;;;19.50;59.90;;;;;;5035819;28;20029;-79
2021/06/14 06:57:40;;;;;;;0.43;0.43;;;19.60;59.80;;;;;;5035303;28;20029;-79
2021/06/14 07:00:10;;;;;;;0.90;0.90;;;19.60;59.80;;;;;;5035295;28;20017;-80
2021/06/14 07:02:35;;;;;;;0.70;0.70;;;19.70;59.80;;;;;;5035173;28;20033;-80
2021/06/14 07:05:01;;;;;;;1.08;0.98;;;19.70;59.60;;;;;;5035086;28;20028;-77
2021/06/14 07:07:26;;;;;;;0.63;0.60;;;19.80;59.70;;;;;;5034914;28;20021;-78
2021/06/14 07:09:52;;;;;;;1.10;0.80;;;19.90;59.60;;;;;;5035044;28;20474;-77
2021/06/14 07:12:17;;;;;;;0.43;0.43;;;20.00;59.50;;;;;;5034793;28;20466;-77
2021/06/14 07:14:43;;;;;;;1.45;0.70;;;20.10;59.60;;;;;;5017290;28;20083;-77
2021/06/14 07:17:09;;;;;;;1.75;0.43;;;20.10;59.60;;;;;;5017048;28;20047;-76
2021/06/14 07:19:34;;;;;;;0.63;0.52;;;20.20;59.60;;;;;;5034750;28;20033;-76
2021/06/14 07:22:00;;;;;;;0.60;0.60;;;20.20;59.50;;;;;;5033285;28;20021;-76
2021/06/14 07:24:25;;;;;;;0.82;0.80;;;20.30;59.50;;;;;;5034880;28;20484;-77
2021/06/14 07:26:53;;;;;;;0.80;0.80;;;20.40;59.40;;;;;;5034650;28;20111;-78
2021/06/14 07:29:19;;;;;;;0.73;0.70;;;20.40;59.30;;;;;;5034664;28;20021;-78
2021/06/14 07:31:44;;;;;;;0.52;0.47;;;20.50;59.30;;;;;;5034692;28;20478;-77
2021/06/14 07:34:10;;;;;;;0.68;0.40;;;20.60;59.30;;;;;;5034339;28;20451;-77
2021/06/14 07:36:36;;;;;;;0.63;0.63;;;20.60;59.30;;;;;;5034205;28;20025;-75
2021/06/14 07:39:04;;;;;;;0.70;0.70;;;20.70;59.30;;;;;;5016685;28;20025;-75
2021/06/14 07:41:30;;;;;;;0.52;0.50;;;20.80;59.20;;;;;;5016514;28;20542;-77
2021/06/14 07:43:56;;;;;;;0.47;0.40;;;20.80;59.20;;;;;;5034436;28;20061;-76
2021/06/14 07:46:21;;;;;;;0.55;0.55;;;20.80;59.20;;;;;;5034595;28;20029;-75
2021/06/14 07:48:47;;;;;;;0.35;0.35;;;20.90;59.20;;;;;;5034233;28;20034;-76
2021/06/14 07:51:13;;;;;;;0.63;0.60;;;21.00;59.80;;;;;;5033658;28;20025;-76
2021/06/14 07:53:38;;;;;;;0.85;0.50;;;21.10;59.10;;;;;;5034165;28;20033;-74
2021/06/14 07:56:06;;;;;;;0.60;0.50;;;21.20;59.00;;;;;;5034104;28;20104;-71
2021/06/14 07:58:32;;;;;;;0.70;0.70;;;21.30;59.00;;;;;;5033952;28;20052;-74
2021/06/14 08:00:58;;;;;;;0.85;0.80;;;21.30;58.90;;;;;;5033821;28;20022;-74
2021/06/14 08:03:24;;;;;;;0.80;0.80;;;21.50;58.80;;;;;;5034047;28;20028;-74
2021/06/14 08:05:53;;;;;;;0.77;0.73;;;21.50;58.70;;;;;;5033445;28;20021;-77
2021/06/14 08:08:18;;;;;;;0.95;0.93;;;21.50;58.70;;;;;;5033730;28;20025;-74
2021/06/14 08:10:46;;;;;;;0.68;0.55;;;21.60;58.80;;;;;;5033811;28;20013;-75
2021/06/14 08:13:13;;;;;;;0.60;0.60;;;21.70;58.60;;;;;;5033763;28;20037;-76
2021/06/14 08:15:39;;;;;;;0.55;0.55;;;21.80;58.60;;;;;;5033532;28;20024;-75
2021/06/14 08:20:58;;;;;;;0.50;0.50;;;22.00;58.40;;;;;;5033291;28;20497;-74
2021/06/14 08:26:08;;;;;;;0.65;0.55;;;22.10;58.30;;;;;;5033850;28;20117;-75
2021/06/14 08:28:34;;;;;;;0.52;0.45;;;22.20;58.20;;;;;;5033677;28;20108;-73
2021/06/14 08:31:02;;;;;;;1.45;0.93;;;22.30;58.10;;;;;;5033712;28;20071;-76
2021/06/14 08:33:27;;;;;;;0.93;0.77;;;22.40;58.00;;;;;;5032580;28;20049;-76
2021/06/14 08:35:53;;;;;;;1.60;0.98;;;22.50;58.00;;;;;;5033497;28;20105;-75
2021/06/14 08:38:18;;;;;;;0.90;0.80;;;22.50;57.90;;;;;;5033552;28;20025;-76
2021/06/14 08:40:44;;;;;;;0.40;0.40;;;22.50;57.70;;;;;;5033564;28;20026;-76
2021/06/14 08:43:09;;;;;;;0.93;0.93;;;22.60;57.80;;;;;;5033350;28;20029;-75
2021/06/14 08:45:39;;;;;;;0.60;0.60;;;22.60;57.80;;;;;;5033370;28;20112;-73
2021/06/14 08:48:07;;;;;;;1.20;0.80;;;22.70;57.70;;;;;;5032844;28;20021;-74
2021/06/14 08:50:33;;;;;;;1.40;1.20;;;22.80;57.70;;;;;;5032961;28;20034;-76
2021/06/14 08:52:59;;;;;;;1.20;0.95;;;22.90;57.60;;;;;;5033235;28;20071;-74
2021/06/14 08:55:24;;;;;;;0.50;0.50;;;23.00;57.40;;;;;;5015481;28;20021;-74
2021/06/14 08:57:51;;;;;;;1.33;0.70;;;23.10;57.30;;;;;;5033090;28;20033;-75
2021/06/14 09:00:21;;;;;;;0.70;0.60;;;23.20;57.30;;;;;;5033127;28;20036;-75
2021/06/14 09:02:48;;;;;;;1.27;0.60;;;23.20;57.20;;;;;;5032720;28;20040;-76
2021/06/14 09:05:20;;;;;;;0.80;0.65;;;23.20;57.20;;;;;;5015414;28;20382;-75
2021/06/14 09:07:47;;;;;;;2.17;0.80;;;23.30;57.30;;;;;;5033420;28;20108;-74
2021/06/14 09:10:36;;;;;;;0.80;0.57;;;23.40;57.10;;;;;;5033113;28;20114;-77
2021/06/14 09:13:31;;;;;;;1.00;0.70;;;23.50;57.00;;;;;;5032869;28;20478;-76
2021/06/14 09:16:06;;;;;;;0.70;0.70;;;23.60;56.90;;;;;;5031260;28;20030;-75
2021/06/14 09:18:31;;;;;;;1.23;0.85;;;23.60;56.80;;;;;;5032687;28;20029;-74
2021/06/14 09:21:12;;;;;;;0.63;0.60;;;23.70;56.80;;;;;;5032816;28;20039;-75
2021/06/14 09:23:50;;;;;;;0.73;0.60;;;23.80;56.70;;;;;;5032967;28;20425;-78
2021/06/14 09:26:50;;;;;;;0.60;0.60;;;23.90;56.50;;;;;;5032952;28;20096;-76
2021/06/14 09:29:27;;;;;;;0.70;0.60;;;24.00;56.30;;;;;;5029793;28;20052;-75
2021/06/14 09:31:58;;;;;;;0.68;0.55;;;24.10;56.20;;;;;;5014691;28;20032;-76
2021/06/14 09:34:40;;;;;;;1.20;0.73;;;24.20;56.10;;;;;;5015077;28;20050;-74
2021/06/14 09:37:09;;;;;;;1.83;1.20;;;24.30;55.90;;;;;;5032784;28;20489;-75
2021/06/14 09:39:39;;;;;;;;;;;24.40;55.50;;;;;;5033033;28;20097;-76
2021/06/14 09:42:23;;;;;;;1.02;0.80;;;24.40;55.60;;;;;;5032696;28;20011;-77
2021/06/14 09:44:51;;;;;;;1.13;1.02;;;24.40;55.40;;;;;;5034647;28;20017;-75
2021/06/14 09:47:17;;;;;;;0.73;0.70;;;24.50;55.30;;;;;;5036213;28;20022;-76
2021/06/14 09:50:09;;;;;;;1.30;1.05;;;24.60;55.30;;;;;;5036494;28;20021;-76
2021/06/14 09:52:35;;;;;;;1.40;1.30;;;24.70;55.00;;;;;;5036428;28;20048;-76
2021/06/14 09:55:09;;;;;;;2.38;1.13;;;24.80;54.90;;;;;;5036510;28;20406;-77
2021/06/14 09:57:35;;;;;;;1.25;1.00;;;24.90;54.70;;;;;;5036477;28;20111;-75
2021/06/14 10:00:14;;;;;;;1.08;0.98;;;24.80;54.80;;;;;;5036093;28;20029;-76
2021/06/14 10:02:40;;;;;;;1.77;1.37;;;25.00;54.70;;;;;;5018235;28;20064;-75
2021/06/14 10:05:25;;;;;;;1.23;1.23;;;25.10;54.30;;;;;;5036292;28;20501;-75
2021/06/14 10:07:54;;;;;;;1.30;1.20;;;25.20;54.30;;;;;;5035881;28;20030;-75
2021/06/14 10:10:27;;;;;;;0.95;0.88;;;25.20;54.20;;;;;;5036311;28;20028;-76
2021/06/14 10:12:56;;;;;;;1.77;1.30;;;25.30;54.20;;;;;;5036048;28;20041;-76
2021/06/14 10:15:35;;;;;;;1.88;1.67;;;25.40;54.20;;;;;;5035628;28;20048;-76
2021/06/14 10:18:02;;;;;;;0.95;0.90;;;25.60;54.10;;;;;;5036189;28;20030;-75
2021/06/14 10:20:30;;;;;;;1.25;1.05;;;25.70;54.10;;;;;;5018297;28;20029;-74
2021/06/14 10:22:58;;;;;;;1.00;0.90;;;25.70;53.90;;;;;;5035740;28;20055;-75
2021/06/14 10:25:25;;;;;;;0.90;0.90;;;25.80;53.90;;;;;;5036022;28;20022;-78
2021/06/14 10:27:51;;;;;;;1.23;1.00;;;25.90;53.80;;;;;;5035807;28;20042;-77
2021/06/14 10:30:19;;;;;;;1.52;0.95;;;26.00;53.70;;;;;;5017532;28;20095;-76
2021/06/14 10:32:45;;;;;;;1.45;1.00;;;26.10;53.50;;;;;;5017617;28;20053;-78
2021/06/14 10:35:13;;;;;;;0.75;0.75;;;26.10;53.80;;;;;;5035614;28;20113;-78
2021/06/14 10:37:51;;;;;;;1.38;1.17;;;26.20;53.40;;;;;;5035696;28;20080;-77
2021/06/14 10:40:27;;;;;;;2.08;1.05;;;26.20;53.30;;;;;;5035708;28;20025;-78
2021/06/14 10:42:54;;;;;;;1.42;1.13;;;26.20;53.20;;;;;;5035492;28;20108;-76
2021/06/14 10:45:24;;;;;;;1.23;1.13;;;26.40;53.10;;;;;;5035043;28;20470;-77
2021/06/14 10:47:51;;;;;;;1.65;1.20;;;26.40;53.10;;;;;;5035520;28;20080;-78
2021/06/14 10:50:23;;;;;;;1.65;1.50;;;26.50;53.00;;;;;;5017610;28;20028;-76
2021/06/14 10:52:49;;;;;;;1.00;1.00;;;26.50;52.70;;;;;;5035182;28;20498;-76
2021/06/14 10:55:17;;;;;;;0.85;0.70;;;26.50;52.80;;;;;;5035134;28;20042;-78
2021/06/14 10:57:43;;;;;;;1.27;1.07;;;26.60;52.70;;;;;;5035434;28;20422;-78
2021/06/14 11:00:29;;;;;;;1.20;1.10;;;26.70;52.50;;;;;;5034609;28;20104;-77
2021/06/14 11:03:00;;;;;;;0.75;0.75;;;26.70;52.50;;;;;;5035385;28;20546;-76
2021/06/14 11:05:31;;;;;;;1.10;1.00;;;26.70;52.50;;;;;;5017402;28;20026;-76
2021/06/14 11:07:57;;;;;;;1.70;1.33;;;26.80;52.10;;;;;;5017294;28;20128;-78
2021/06/14 11:10:28;;;;;;;1.27;1.10;;;26.90;52.10;;;;;;5017203;28;20470;-77
2021/06/14 11:13:08;;;;;;;1.77;0.80;;;27.00;51.90;;;;;;5034499;28;20437;-77
2021/06/14 11:15:35;;;;;;;2.20;1.60;;;27.20;51.60;;;;;;5035020;28;20029;-79
2021/06/14 11:18:05;;;;;;;1.05;1.05;;;27.30;51.10;;;;;;5017195;28;20072;-77
2021/06/14 11:20:38;;;;;;;2.15;1.15;;;27.60;51.20;;;;;;5035155;28;20025;-77
2021/06/14 11:23:05;;;;;;;1.20;1.10;;;28.40;50.60;;;;;;5034569;28;20029;-78
2021/06/14 11:25:41;;;;;;;1.20;1.10;;;29.30;49.50;;;;;;5034748;28;20025;-77
2021/06/14 11:28:10;;;;;;;1.30;1.02;;;30.10;48.50;;;;;;5034218;28;20052;-76
2021/06/14 11:30:47;;;;;;;;;;;30.60;47.80;;;;;;5035120;28;20033;-78
2021/06/14 11:33:24;;;;;;;1.63;0.88;;;31.00;47.80;;;;;;5034264;28;19917;-77
2021/06/14 11:35:52;;;;;;;0.77;0.77;;;31.50;47.40;;;;;;5034673;28;20032;-77
2021/06/14 11:38:21;;;;;;;2.08;1.00;;;31.90;47.10;;;;;;5034320;28;20057;-77
2021/06/14 11:40:54;;;;;;;;;;;32.30;46.70;;;;;;5017130;28;20020;-76
2021/06/14 11:43:20;;;;;;;0.68;0.68;;;32.30;46.80;;;;;;5016185;28;19905;-77
2021/06/14 11:45:49;;;;;;;0.88;0.88;;;32.30;46.80;;;;;;5034425;28;20025;-77
2021/06/14 11:48:25;;;;;;;0.90;0.82;;;32.60;46.20;;;;;;5034385;28;20430;-77
2021/06/14 11:51:09;;;;;;;0.80;0.80;;;32.70;46.30;;;;;;5034126;28;20379;-76
2021/06/14 11:53:45;;;;;;;1.50;0.90;;;32.90;46.30;;;;;;5016327;28;20026;-75
2021/06/14 11:56:12;;;;;;;0.85;0.85;;;32.90;45.90;;;;;;5034215;28;20486;-76
2021/06/14 11:58:41;;;;;;;0.57;0.57;;;32.90;46.10;;;;;;5015619;28;20029;-76
2021/06/14 12:01:07;;;;;;;;;;;33.00;45.90;;;;;;5034741;28;20493;-76
2021/06/14 12:03:32;;;;;;;0.88;0.88;;;33.00;46.30;;;;;;5034022;28;19912;-76
2021/06/14 12:05:58;;;;;;;0.70;0.70;;;32.90;46.20;;;;;;5033867;28;20101;-78
2021/06/14 12:08:26;;;;;;;1.42;0.90;;;33.00;46.30;;;;;;5033206;28;20025;-77
2021/06/14 12:10:54;;;;;;;1.02;0.90;;;33.00;46.10;;;;;;5033667;28;20071;-78
2021/06/14 12:13:21;;;;;;;0.80;0.80;;;32.90;46.20;;;;;;5033685;28;20025;-79
2021/06/14 12:15:50;;;;;;;1.10;0.90;;;32.90;46.20;;;;;;5033835;28;20029;-77
2021/06/14 12:18:18;;;;;;;0.93;0.93;;;32.70;46.30;;;;;;5033833;28;20086;-78
2021/06/14 12:21:06;;;;;;;1.27;1.13;;;32.40;46.50;;;;;;5033595;28;20040;-78
2021/06/14 12:23:34;;;;;;;1.13;1.00;;;32.30;46.60;;;;;;5033651;28;20256;-77
2021/06/14 12:26:03;;;;;;;1.02;0.93;;;32.00;47.00;;;;;;5033220;28;20104;-76
2021/06/14 12:28:29;;;;;;;1.27;1.15;;;31.80;46.90;;;;;;5033586;28;20485;-74
2021/06/14 12:31:05;;;;;;;1.48;1.38;;;31.60;47.10;;;;;;5033607;28;20033;-75
2021/06/14 12:33:33;;;;;;;1.27;1.08;;;31.70;47.10;;;;;;5033145;28;20045;-77
2021/06/14 12:35:59;;;;;;;1.85;1.10;;;31.80;46.70;;;;;;5033626;28;20478;-77
2021/06/14 12:38:28;;;;;;;0.82;0.80;;;32.10;46.30;;;;;;5015581;28;20191;-81
2021/06/14 12:40:55;;;;;;;1.00;0.82;;;32.30;46.20;;;;;;5032962;28;20018;-77
2021/06/14 12:43:20;;;;;;;0.98;0.98;;;32.60;46.00;;;;;;5033216;28;20516;-78
2021/06/14 12:45:46;;;;;;;0.70;0.70;;;33.00;45.40;;;;;;5015613;28;20025;-76
2021/06/14 12:48:17;;;;;;;1.30;0.93;;;33.30;45.10;;;;;;5033269;28;20087;-79
2021/06/14 12:50:49;;;;;;;0.93;0.90;;;33.60;44.70;;;;;;5033343;28;20022;-80
2021/06/14 12:53:18;;;;;;;1.30;0.98;;;33.70;44.30;;;;;;5033195;28;20033;-76
2021/06/14 12:55:44;;;;;;;1.35;1.08;;;33.50;44.30;;;;;;5011964;28;20022;-79
2021/06/14 12:58:12;;;;;;;0.75;0.70;;;33.50;44.40;;;;;;5010588;28;20036;-78
2021/06/14 13:00:53;;;;;;;0.70;0.70;;;33.50;44.30;;;;;;5010673;28;20036;-79